Nunn, Colorado
Current Conditions -  °F | °C
As of 11:35 AM on Saturday 25 Oct 2014 (Local Time) from KGXY Reporting Station
Clear Clear  
Wind Chill: 70°   Ceiling: Unl
Heat Index: 70°   Visibility: 10mi
Dew Point: 36°   Wind: 3mph
Humidity: 28%   Direction: 220°SW
Pressure: 30.2"   Gusts: NA
Location:  40.7°N, 104.78°W
Report Text: KGXY 251735Z AUTO 22003KT 10SM CLR 21/02 A3020 RMK AO1
Loading
Personal Weather Stations






























Interactive Weather Map
Tropical Storm Tracking
New forecast layout! Learn more

10-Day Weather Forecast

Advertisements
Track Severe Weather on mobile